sensor_id;sensor_type;location;lat;lon;timestamp;P1;durP1;ratioP1;P2;durP2;ratioP2
23370;SDS011;11858;51.056;3.712;2023-06-10T00:01:37;17.48;;;16.38;;
23370;SDS011;11858;51.056;3.712;2023-06-10T00:04:03;17.73;;;16.63;;
23370;SDS011;11858;51.056;3.712;2023-06-10T00:06:29;17.60;;;16.50;;
23370;SDS011;11858;51.056;3.712;2023-06-10T00:09:03;18.17;;;16.98;;
23370;SDS011;11858;51.056;3.712;2023-06-10T00:11:30;17.98;;;16.88;;
23370;SDS011;11858;51.056;3.712;2023-06-10T00:13:57;18.23;;;17.02;;
23370;SDS011;11858;51.056;3.712;2023-06-10T00:16:22;17.70;;;16.60;;
23370;SDS011;11858;51.056;3.712;2023-06-10T00:18:49;18.10;;;16.90;;
23370;SDS011;11858;51.056;3.712;2023-06-10T00:21:16;17.60;;;16.50;;
23370;SDS011;11858;51.056;3.712;2023-06-10T00:23:42;18.17;;;16.98;;
23370;SDS011;11858;51.056;3.712;2023-06-10T00:26:08;17.80;;;16.70;;
23370;SDS011;11858;51.056;3.712;2023-06-10T00:28:34;18.60;;;17.40;;
23370;SDS011;11858;51.056;3.712;2023-06-10T00:31:00;17.55;;;16.45;;
23370;SDS011;11858;51.056;3.712;2023-06-10T00:33:26;18.13;;;16.92;;
23370;SDS011;11858;51.056;3.712;2023-06-10T00:35:53;17.92;;;16.83;;
23370;SDS011;11858;51.056;3.712;2023-06-10T00:38:18;17.90;;;16.80;;
23370;SDS011;11858;51.056;3.712;2023-06-10T00:40:44;18.75;;;17.55;;
23370;SDS011;11858;51.056;3.712;2023-06-10T00:43:10;18.00;;;16.90;;
23370;SDS011;11858;51.056;3.712;2023-06-10T00:45:35;18.13;;;17.00;;
23370;SDS011;11858;51.056;3.712;2023-06-10T00:48:01;18.20;;;17.02;;
23370;SDS011;11858;51.056;3.712;2023-06-10T00:50:28;18.27;;;17.08;;
23370;SDS011;11858;51.056;3.712;2023-06-10T00:52:56;17.90;;;16.80;;
23370;SDS011;11858;51.056;3.712;2023-06-10T00:55:22;18.30;;;17.10;;
23370;SDS011;11858;51.056;3.712;2023-06-10T00:57:48;18.77;;;17.58;;
23370;SDS011;11858;51.056;3.712;2023-06-10T01:00:14;18.33;;;17.13;;
23370;SDS011;11858;51.056;3.712;2023-06-10T01:02:41;17.85;;;16.75;;
23370;SDS011;11858;51.056;3.712;2023-06-10T01:05:07;17.67;;;16.58;;
23370;SDS011;11858;51.056;3.712;2023-06-10T01:07:39;18.17;;;16.98;;
23370;SDS011;11858;51.056;3.712;2023-06-10T01:10:19;17.95;;;16.85;;
23370;SDS011;11858;51.056;3.712;2023-06-10T01:12:59;18.75;;;17.55;;
23370;SDS011;11858;51.056;3.712;2023-06-10T01:15:32;17.70;;;16.60;;
23370;SDS011;11858;51.056;3.712;2023-06-10T01:18:00;17.90;;;16.80;;
23370;SDS011;11858;51.056;3.712;2023-06-10T01:20:27;17.80;;;16.70;;
23370;SDS011;11858;51.056;3.712;2023-06-10T01:22:54;18.60;;;17.40;;
23370;SDS011;11858;51.056;3.712;2023-06-10T01:25:21;18.77;;;17.58;;
23370;SDS011;11858;51.056;3.712;2023-06-10T01:33:33;18.52;;;17.33;;
23370;SDS011;11858;51.056;3.712;2023-06-10T01:36:02;18.42;;;17.23;;
23370;SDS011;11858;51.056;3.712;2023-06-10T01:38:32;19.10;;;17.90;;
23370;SDS011;11858;51.056;3.712;2023-06-10T01:41:01;18.75;;;17.55;;
23370;SDS011;11858;51.056;3.712;2023-06-10T01:43:28;18.50;;;17.30;;
23370;SDS011;11858;51.056;3.712;2023-06-10T01:45:58;18.30;;;17.10;;
23370;SDS011;11858;51.056;3.712;2023-06-10T01:48:24;18.85;;;17.65;;
23370;SDS011;11858;51.056;3.712;2023-06-10T01:50:50;17.90;;;16.80;;
23370;SDS011;11858;51.056;3.712;2023-06-10T01:53:15;17.88;;;16.70;;
23370;SDS011;11858;51.056;3.712;2023-06-10T01:55:41;17.73;;;16.60;;
23370;SDS011;11858;51.056;3.712;2023-06-10T01:58:07;18.65;;;17.45;;
23370;SDS011;11858;51.056;3.712;2023-06-10T02:00:32;18.70;;;17.50;;
23370;SDS011;11858;51.056;3.712;2023-06-10T02:02:58;18.50;;;17.30;;
23370;SDS011;11858;51.056;3.712;2023-06-10T02:05:24;20.02;;;18.63;;
23370;SDS011;11858;51.056;3.712;2023-06-10T02:07:50;19.58;;;17.85;;
23370;SDS011;11858;51.056;3.712;2023-06-10T02:10:16;18.63;;;17.42;;
23370;SDS011;11858;51.056;3.712;2023-06-10T02:12:41;18.27;;;17.08;;
23370;SDS011;11858;51.056;3.712;2023-06-10T02:15:07;18.98;;;17.67;;
23370;SDS011;11858;51.056;3.712;2023-06-10T02:17:32;18.95;;;17.75;;
23370;SDS011;11858;51.056;3.712;2023-06-10T02:19:58;18.80;;;17.60;;
23370;SDS011;11858;51.056;3.712;2023-06-10T02:22:25;18.73;;;17.48;;
23370;SDS011;11858;51.056;3.712;2023-06-10T02:24:50;19.02;;;17.73;;
23370;SDS011;11858;51.056;3.712;2023-06-10T02:27:16;18.65;;;17.45;;
23370;SDS011;11858;51.056;3.712;2023-06-10T02:29:44;18.20;;;17.00;;
23370;SDS011;11858;51.056;3.712;2023-06-10T02:32:10;18.48;;;17.27;;
23370;SDS011;11858;51.056;3.712;2023-06-10T02:34:35;19.83;;;18.48;;
23370;SDS011;11858;51.056;3.712;2023-06-10T02:37:01;18.98;;;17.77;;
23370;SDS011;11858;51.056;3.712;2023-06-10T02:39:27;18.55;;;17.35;;
23370;SDS011;11858;51.056;3.712;2023-06-10T02:41:53;18.40;;;17.20;;
23370;SDS011;11858;51.056;3.712;2023-06-10T02:44:19;18.80;;;17.60;;
23370;SDS011;11858;51.056;3.712;2023-06-10T02:46:45;18.80;;;17.60;;
23370;SDS011;11858;51.056;3.712;2023-06-10T02:49:11;19.60;;;18.30;;
23370;SDS011;11858;51.056;3.712;2023-06-10T02:51:37;18.50;;;17.30;;
23370;SDS011;11858;51.056;3.712;2023-06-10T02:54:03;18.15;;;16.98;;
23370;SDS011;11858;51.056;3.712;2023-06-10T02:56:29;18.85;;;17.65;;
23370;SDS011;11858;51.056;3.712;2023-06-10T02:58:56;18.70;;;17.50;;
23370;SDS011;11858;51.056;3.712;2023-06-10T03:01:22;18.63;;;17.42;;
23370;SDS011;11858;51.056;3.712;2023-06-10T03:03:48;19.20;;;18.00;;
23370;SDS011;11858;51.056;3.712;2023-06-10T03:06:15;18.40;;;17.20;;
23370;SDS011;11858;51.056;3.712;2023-06-10T03:08:41;18.52;;;17.33;;
23370;SDS011;11858;51.056;3.712;2023-06-10T03:11:06;19.00;;;17.80;;
23370;SDS011;11858;51.056;3.712;2023-06-10T03:13:32;18.70;;;17.50;;
23370;SDS011;11858;51.056;3.712;2023-06-10T03:15:58;18.98;;;17.77;;
23370;SDS011;11858;51.056;3.712;2023-06-10T03:18:27;18.83;;;17.63;;
23370;SDS011;11858;51.056;3.712;2023-06-10T03:20:53;18.98;;;17.67;;
23370;SDS011;11858;51.056;3.712;2023-06-10T03:23:20;19.65;;;18.35;;
23370;SDS011;11858;51.056;3.712;2023-06-10T03:25:46;19.17;;;17.88;;
23370;SDS011;11858;51.056;3.712;2023-06-10T03:28:12;18.95;;;17.65;;
23370;SDS011;11858;51.056;3.712;2023-06-10T03:30:37;18.25;;;17.05;;
23370;SDS011;11858;51.056;3.712;2023-06-10T03:33:03;19.10;;;17.80;;
23370;SDS011;11858;51.056;3.712;2023-06-10T03:35:29;17.70;;;16.60;;
23370;SDS011;11858;51.056;3.712;2023-06-10T03:37:55;18.40;;;17.20;;
23370;SDS011;11858;51.056;3.712;2023-06-10T03:40:20;17.80;;;16.70;;
23370;SDS011;11858;51.056;3.712;2023-06-10T03:42:46;17.67;;;16.58;;
23370;SDS011;11858;51.056;3.712;2023-06-10T03:45:12;17.50;;;16.40;;
23370;SDS011;11858;51.056;3.712;2023-06-10T03:47:37;16.95;;;15.95;;
23370;SDS011;11858;51.056;3.712;2023-06-10T03:50:05;17.63;;;16.52;;
23370;SDS011;11858;51.056;3.712;2023-06-10T03:52:33;18.05;;;16.95;;
23370;SDS011;11858;51.056;3.712;2023-06-10T03:54:59;18.10;;;17.00;;
23370;SDS011;11858;51.056;3.712;2023-06-10T03:57:24;16.50;;;15.50;;
23370;SDS011;11858;51.056;3.712;2023-06-10T03:59:50;17.42;;;16.33;;
23370;SDS011;11858;51.056;3.712;2023-06-10T04:02:16;18.20;;;17.10;;
23370;SDS011;11858;51.056;3.712;2023-06-10T04:04:42;18.65;;;17.45;;
23370;SDS011;11858;51.056;3.712;2023-06-10T04:07:08;17.38;;;16.27;;
23370;SDS011;11858;51.056;3.712;2023-06-10T04:09:34;17.35;;;16.25;;
23370;SDS011;11858;51.056;3.712;2023-06-10T04:12:00;18.15;;;16.95;;
23370;SDS011;11858;51.056;3.712;2023-06-10T04:14:26;18.30;;;17.10;;
23370;SDS011;11858;51.056;3.712;2023-06-10T04:16:52;18.15;;;16.95;;
23370;SDS011;11858;51.056;3.712;2023-06-10T04:19:18;18.70;;;17.50;;
23370;SDS011;11858;51.056;3.712;2023-06-10T04:21:45;18.42;;;17.23;;
23370;SDS011;11858;51.056;3.712;2023-06-10T04:24:10;18.52;;;17.35;;
23370;SDS011;11858;51.056;3.712;2023-06-10T04:26:37;18.23;;;17.02;;
23370;SDS011;11858;51.056;3.712;2023-06-10T04:29:03;18.10;;;16.90;;
23370;SDS011;11858;51.056;3.712;2023-06-10T04:31:29;18.50;;;17.30;;
23370;SDS011;11858;51.056;3.712;2023-06-10T04:33:55;17.73;;;16.63;;
23370;SDS011;11858;51.056;3.712;2023-06-10T04:36:20;17.98;;;16.88;;
23370;SDS011;11858;51.056;3.712;2023-06-10T04:38:46;17.95;;;16.83;;
23370;SDS011;11858;51.056;3.712;2023-06-10T04:41:12;17.08;;;15.98;;
23370;SDS011;11858;51.056;3.712;2023-06-10T04:43:38;17.25;;;16.15;;
23370;SDS011;11858;51.056;3.712;2023-06-10T04:46:04;18.52;;;17.33;;
23370;SDS011;11858;51.056;3.712;2023-06-10T04:48:29;17.23;;;16.13;;
23370;SDS011;11858;51.056;3.712;2023-06-10T04:50:55;17.35;;;16.25;;
23370;SDS011;11858;51.056;3.712;2023-06-10T04:53:21;17.60;;;16.50;;
23370;SDS011;11858;51.056;3.712;2023-06-10T04:55:47;17.63;;;16.50;;
23370;SDS011;11858;51.056;3.712;2023-06-10T04:58:13;17.23;;;16.13;;
23370;SDS011;11858;51.056;3.712;2023-06-10T05:00:39;16.83;;;15.82;;
23370;SDS011;11858;51.056;3.712;2023-06-10T05:03:05;17.83;;;16.73;;
23370;SDS011;11858;51.056;3.712;2023-06-10T05:05:31;17.20;;;16.10;;
23370;SDS011;11858;51.056;3.712;2023-06-10T05:07:56;17.40;;;16.30;;
23370;SDS011;11858;51.056;3.712;2023-06-10T05:10:22;16.23;;;15.23;;
23370;SDS011;11858;51.056;3.712;2023-06-10T05:12:48;17.42;;;16.33;;
23370;SDS011;11858;51.056;3.712;2023-06-10T05:15:13;17.15;;;16.05;;
23370;SDS011;11858;51.056;3.712;2023-06-10T05:17:39;16.50;;;15.50;;
23370;SDS011;11858;51.056;3.712;2023-06-10T05:20:05;17.58;;;16.48;;
23370;SDS011;11858;51.056;3.712;2023-06-10T05:22:31;17.02;;;15.93;;
23370;SDS011;11858;51.056;3.712;2023-06-10T05:24:57;17.60;;;16.50;;
23370;SDS011;11858;51.056;3.712;2023-06-10T05:27:23;17.70;;;16.60;;
23370;SDS011;11858;51.056;3.712;2023-06-10T05:29:49;17.77;;;16.65;;
23370;SDS011;11858;51.056;3.712;2023-06-10T05:32:16;17.75;;;16.65;;
23370;SDS011;11858;51.056;3.712;2023-06-10T05:34:42;17.83;;;16.73;;
23370;SDS011;11858;51.056;3.712;2023-06-10T05:37:08;18.40;;;17.20;;
23370;SDS011;11858;51.056;3.712;2023-06-10T05:39:35;17.73;;;16.63;;
23370;SDS011;11858;51.056;3.712;2023-06-10T05:42:02;17.60;;;16.50;;
23370;SDS011;11858;51.056;3.712;2023-06-10T05:44:29;17.92;;;16.83;;
23370;SDS011;11858;51.056;3.712;2023-06-10T05:46:55;16.42;;;15.43;;
23370;SDS011;11858;51.056;3.712;2023-06-10T05:49:20;16.95;;;15.95;;
23370;SDS011;11858;51.056;3.712;2023-06-10T05:51:46;17.52;;;16.40;;
23370;SDS011;11858;51.056;3.712;2023-06-10T05:54:11;16.77;;;15.68;;
23370;SDS011;11858;51.056;3.712;2023-06-10T05:56:37;16.08;;;15.07;;
23370;SDS011;11858;51.056;3.712;2023-06-10T05:59:03;16.23;;;15.23;;
23370;SDS011;11858;51.056;3.712;2023-06-10T06:01:28;16.58;;;15.57;;
23370;SDS011;11858;51.056;3.712;2023-06-10T06:03:54;16.77;;;15.77;;
23370;SDS011;11858;51.056;3.712;2023-06-10T06:06:20;16.70;;;15.60;;
23370;SDS011;11858;51.056;3.712;2023-06-10T06:08:45;16.88;;;15.88;;
23370;SDS011;11858;51.056;3.712;2023-06-10T06:11:11;17.10;;;16.05;;
23370;SDS011;11858;51.056;3.712;2023-06-10T06:13:37;17.00;;;16.00;;
23370;SDS011;11858;51.056;3.712;2023-06-10T06:16:03;17.25;;;16.25;;
23370;SDS011;11858;51.056;3.712;2023-06-10T06:18:28;17.48;;;16.38;;
23370;SDS011;11858;51.056;3.712;2023-06-10T06:20:54;17.95;;;16.85;;
23370;SDS011;11858;51.056;3.712;2023-06-10T06:23:20;16.45;;;15.45;;
23370;SDS011;11858;51.056;3.712;2023-06-10T06:25:45;17.13;;;16.08;;
23370;SDS011;11858;51.056;3.712;2023-06-10T06:28:11;18.67;;;17.48;;
23370;SDS011;11858;51.056;3.712;2023-06-10T06:30:36;16.95;;;15.95;;
23370;SDS011;11858;51.056;3.712;2023-06-10T06:33:02;17.85;;;16.55;;
23370;SDS011;11858;51.056;3.712;2023-06-10T06:35:30;16.60;;;15.60;;
23370;SDS011;11858;51.056;3.712;2023-06-10T06:37:57;17.05;;;15.95;;
23370;SDS011;11858;51.056;3.712;2023-06-10T06:40:23;17.00;;;15.90;;
23370;SDS011;11858;51.056;3.712;2023-06-10T06:42:49;17.40;;;16.20;;
23370;SDS011;11858;51.056;3.712;2023-06-10T06:45:15;18.25;;;16.95;;
23370;SDS011;11858;51.056;3.712;2023-06-10T06:47:41;17.67;;;16.55;;
23370;SDS011;11858;51.056;3.712;2023-06-10T06:50:06;19.05;;;17.60;;
23370;SDS011;11858;51.056;3.712;2023-06-10T06:52:32;17.60;;;16.40;;
23370;SDS011;11858;51.056;3.712;2023-06-10T06:54:58;17.13;;;16.02;;
23370;SDS011;11858;51.056;3.712;2023-06-10T06:57:23;17.65;;;16.45;;
23370;SDS011;11858;51.056;3.712;2023-06-10T06:59:49;17.20;;;16.10;;
23370;SDS011;11858;51.056;3.712;2023-06-10T07:02:15;18.00;;;16.90;;
23370;SDS011;11858;51.056;3.712;2023-06-10T07:04:40;19.02;;;17.73;;
23370;SDS011;11858;51.056;3.712;2023-06-10T07:07:07;17.25;;;16.23;;
23370;SDS011;11858;51.056;3.712;2023-06-10T07:09:36;16.55;;;15.55;;
23370;SDS011;11858;51.056;3.712;2023-06-10T07:12:02;16.80;;;15.80;;
23370;SDS011;11858;51.056;3.712;2023-06-10T07:14:28;16.50;;;15.50;;
23370;SDS011;11858;51.056;3.712;2023-06-10T07:16:54;16.55;;;15.55;;
23370;SDS011;11858;51.056;3.712;2023-06-10T07:19:20;17.50;;;16.35;;
23370;SDS011;11858;51.056;3.712;2023-06-10T07:21:45;18.30;;;16.88;;
23370;SDS011;11858;51.056;3.712;2023-06-10T07:24:11;18.33;;;17.02;;
23370;SDS011;11858;51.056;3.712;2023-06-10T07:26:37;17.05;;;16.05;;
23370;SDS011;11858;51.056;3.712;2023-06-10T07:29:02;16.90;;;15.90;;
23370;SDS011;11858;51.056;3.712;2023-06-10T07:31:28;16.77;;;15.77;;
23370;SDS011;11858;51.056;3.712;2023-06-10T07:33:54;16.90;;;15.85;;
23370;SDS011;11858;51.056;3.712;2023-06-10T07:36:19;16.58;;;15.57;;
23370;SDS011;11858;51.056;3.712;2023-06-10T07:38:45;17.02;;;16.00;;
23370;SDS011;11858;51.056;3.712;2023-06-10T07:41:10;16.40;;;15.40;;
23370;SDS011;11858;51.056;3.712;2023-06-10T07:43:36;17.10;;;16.00;;
23370;SDS011;11858;51.056;3.712;2023-06-10T07:46:03;17.52;;;16.42;;
23370;SDS011;11858;51.056;3.712;2023-06-10T07:48:30;16.77;;;15.70;;
23370;SDS011;11858;51.056;3.712;2023-06-10T07:50:56;16.10;;;15.13;;
23370;SDS011;11858;51.056;3.712;2023-06-10T07:53:21;17.08;;;15.98;;
23370;SDS011;11858;51.056;3.712;2023-06-10T07:55:47;17.75;;;16.55;;
23370;SDS011;11858;51.056;3.712;2023-06-10T07:58:13;18.20;;;17.10;;
23370;SDS011;11858;51.056;3.712;2023-06-10T08:00:38;16.45;;;15.45;;
23370;SDS011;11858;51.056;3.712;2023-06-10T08:03:04;18.35;;;17.13;;
23370;SDS011;11858;51.056;3.712;2023-06-10T08:05:29;16.52;;;15.52;;
23370;SDS011;11858;51.056;3.712;2023-06-10T08:07:55;17.02;;;16.02;;
23370;SDS011;11858;51.056;3.712;2023-06-10T08:10:21;17.65;;;16.55;;
23370;SDS011;11858;51.056;3.712;2023-06-10T08:12:46;17.23;;;16.10;;
23370;SDS011;11858;51.056;3.712;2023-06-10T08:15:12;16.42;;;15.43;;
23370;SDS011;11858;51.056;3.712;2023-06-10T08:17:38;16.73;;;15.73;;
23370;SDS011;11858;51.056;3.712;2023-06-10T08:20:05;16.75;;;15.75;;
23370;SDS011;11858;51.056;3.712;2023-06-10T08:22:31;16.85;;;15.85;;
23370;SDS011;11858;51.056;3.712;2023-06-10T08:24:57;16.95;;;15.93;;
23370;SDS011;11858;51.056;3.712;2023-06-10T08:27:22;17.77;;;16.67;;
23370;SDS011;11858;51.056;3.712;2023-06-10T08:29:48;17.48;;;16.48;;
23370;SDS011;11858;51.056;3.712;2023-06-10T08:32:14;17.80;;;16.70;;
23370;SDS011;11858;51.056;3.712;2023-06-10T08:34:39;17.20;;;16.20;;
23370;SDS011;11858;51.056;3.712;2023-06-10T08:37:06;17.10;;;16.05;;
23370;SDS011;11858;51.056;3.712;2023-06-10T08:39:32;17.77;;;16.67;;
23370;SDS011;11858;51.056;3.712;2023-06-10T08:44:35;17.13;;;16.10;;
23370;SDS011;11858;51.056;3.712;2023-06-10T08:47:14;17.50;;;16.40;;
23370;SDS011;11858;51.056;3.712;2023-06-10T08:49:43;16.77;;;15.77;;
23370;SDS011;11858;51.056;3.712;2023-06-10T08:52:19;15.95;;;15.00;;
23370;SDS011;11858;51.056;3.712;2023-06-10T08:54:49;17.80;;;16.63;;
23370;SDS011;11858;51.056;3.712;2023-06-10T08:57:19;17.33;;;16.15;;
23370;SDS011;11858;51.056;3.712;2023-06-10T08:59:46;17.42;;;16.33;;
23370;SDS011;11858;51.056;3.712;2023-06-10T09:02:13;18.65;;;17.35;;
23370;SDS011;11858;51.056;3.712;2023-06-10T09:04:42;16.65;;;15.65;;
23370;SDS011;11858;51.056;3.712;2023-06-10T09:07:08;17.20;;;16.10;;
23370;SDS011;11858;51.056;3.712;2023-06-10T09:09:35;17.50;;;16.40;;
23370;SDS011;11858;51.056;3.712;2023-06-10T09:12:02;17.20;;;16.10;;
23370;SDS011;11858;51.056;3.712;2023-06-10T09:14:28;17.58;;;16.48;;
23370;SDS011;11858;51.056;3.712;2023-06-10T09:16:54;18.00;;;16.90;;
23370;SDS011;11858;51.056;3.712;2023-06-10T09:19:23;18.23;;;17.00;;
23370;SDS011;11858;51.056;3.712;2023-06-10T09:21:50;17.10;;;16.00;;
23370;SDS011;11858;51.056;3.712;2023-06-10T09:24:15;17.10;;;16.05;;
23370;SDS011;11858;51.056;3.712;2023-06-10T09:26:42;17.05;;;15.95;;
23370;SDS011;11858;51.056;3.712;2023-06-10T09:29:09;17.38;;;16.27;;
23370;SDS011;11858;51.056;3.712;2023-06-10T09:31:36;17.92;;;16.73;;
23370;SDS011;11858;51.056;3.712;2023-06-10T09:34:11;18.63;;;17.42;;
23370;SDS011;11858;51.056;3.712;2023-06-10T09:36:38;17.58;;;16.20;;
23370;SDS011;11858;51.056;3.712;2023-06-10T09:39:05;18.42;;;17.25;;
23370;SDS011;11858;51.056;3.712;2023-06-10T09:41:40;17.52;;;16.42;;
23370;SDS011;11858;51.056;3.712;2023-06-10T09:44:11;17.75;;;16.55;;
23370;SDS011;11858;51.056;3.712;2023-06-10T09:46:41;18.85;;;17.58;;
23370;SDS011;11858;51.056;3.712;2023-06-10T09:49:07;17.95;;;16.85;;
23370;SDS011;11858;51.056;3.712;2023-06-10T09:51:33;18.70;;;17.40;;
23370;SDS011;11858;51.056;3.712;2023-06-10T09:53:59;18.55;;;16.92;;
23370;SDS011;11858;51.056;3.712;2023-06-10T09:56:34;17.92;;;16.65;;
23370;SDS011;11858;51.056;3.712;2023-06-10T09:59:01;17.65;;;16.55;;
23370;SDS011;11858;51.056;3.712;2023-06-10T10:01:27;17.38;;;16.17;;
23370;SDS011;11858;51.056;3.712;2023-06-10T10:03:53;16.80;;;15.80;;
23370;SDS011;11858;51.056;3.712;2023-06-10T10:06:19;16.63;;;15.63;;
23370;SDS011;11858;51.056;3.712;2023-06-10T10:08:46;16.40;;;15.40;;
23370;SDS011;11858;51.056;3.712;2023-06-10T10:11:14;17.08;;;16.08;;
23370;SDS011;11858;51.056;3.712;2023-06-10T10:13:41;17.58;;;16.48;;
23370;SDS011;11858;51.056;3.712;2023-06-10T10:16:11;17.48;;;16.38;;
23370;SDS011;11858;51.056;3.712;2023-06-10T10:18:41;17.60;;;16.50;;
23370;SDS011;11858;51.056;3.712;2023-06-10T10:23:44;16.58;;;15.57;;
23370;SDS011;11858;51.056;3.712;2023-06-10T10:26:26;17.33;;;16.23;;
23370;SDS011;11858;51.056;3.712;2023-06-10T10:29:37;17.42;;;16.23;;
23370;SDS011;11858;51.056;3.712;2023-06-10T10:31:50;16.40;;;15.40;;
23370;SDS011;11858;51.056;3.712;2023-06-10T10:34:43;17.55;;;16.45;;
23370;SDS011;11858;51.056;3.712;2023-06-10T10:37:07;17.50;;;16.05;;
23370;SDS011;11858;51.056;3.712;2023-06-10T10:39:33;16.55;;;15.55;;
23370;SDS011;11858;51.056;3.712;2023-06-10T10:42:00;16.58;;;15.57;;
23370;SDS011;11858;51.056;3.712;2023-06-10T10:44:28;17.05;;;15.95;;
23370;SDS011;11858;51.056;3.712;2023-06-10T10:46:54;17.48;;;16.38;;
23370;SDS011;11858;51.056;3.712;2023-06-10T10:49:22;17.63;;;16.52;;
23370;SDS011;11858;51.056;3.712;2023-06-10T10:51:56;16.95;;;15.93;;
23370;SDS011;11858;51.056;3.712;2023-06-10T10:54:29;17.90;;;16.67;;
23370;SDS011;11858;51.056;3.712;2023-06-10T11:02:43;15.65;;;14.75;;
23370;SDS011;11858;51.056;3.712;2023-06-10T11:05:14;16.02;;;15.07;;
23370;SDS011;11858;51.056;3.712;2023-06-10T11:07:41;17.10;;;16.00;;
23370;SDS011;11858;51.056;3.712;2023-06-10T11:10:17;16.15;;;15.13;;
23370;SDS011;11858;51.056;3.712;2023-06-10T11:12:53;17.30;;;16.20;;
23370;SDS011;11858;51.056;3.712;2023-06-10T11:15:23;16.80;;;15.80;;
23370;SDS011;11858;51.056;3.712;2023-06-10T11:18:07;16.60;;;15.60;;
23370;SDS011;11858;51.056;3.712;2023-06-10T11:28:40;16.85;;;15.85;;
23370;SDS011;11858;51.056;3.712;2023-06-10T11:31:08;16.17;;;15.18;;
23370;SDS011;11858;51.056;3.712;2023-06-10T11:33:43;18.42;;;17.17;;
23370;SDS011;11858;51.056;3.712;2023-06-10T11:36:09;17.45;;;16.15;;
23370;SDS011;11858;51.056;3.712;2023-06-10T11:38:34;16.73;;;15.70;;
23370;SDS011;11858;51.056;3.712;2023-06-10T11:41:01;15.95;;;14.98;;
23370;SDS011;11858;51.056;3.712;2023-06-10T11:43:27;16.80;;;15.70;;
23370;SDS011;11858;51.056;3.712;2023-06-10T11:45:54;16.75;;;15.75;;
23370;SDS011;11858;51.056;3.712;2023-06-10T11:48:21;16.58;;;15.57;;
23370;SDS011;11858;51.056;3.712;2023-06-10T11:50:46;18.40;;;16.85;;
23370;SDS011;11858;51.056;3.712;2023-06-10T11:53:12;16.58;;;15.57;;
23370;SDS011;11858;51.056;3.712;2023-06-10T11:55:45;16.95;;;15.75;;
23370;SDS011;11858;51.056;3.712;2023-06-10T11:58:12;15.82;;;14.93;;
23370;SDS011;11858;51.056;3.712;2023-06-10T12:00:51;15.75;;;14.85;;
23370;SDS011;11858;51.056;3.712;2023-06-10T12:03:19;16.13;;;15.13;;
23370;SDS011;11858;51.056;3.712;2023-06-10T12:05:57;16.50;;;15.43;;
23370;SDS011;11858;51.056;3.712;2023-06-10T12:08:23;16.55;;;15.55;;
23370;SDS011;11858;51.056;3.712;2023-06-10T12:10:49;16.90;;;15.80;;
23370;SDS011;11858;51.056;3.712;2023-06-10T12:13:15;17.40;;;16.10;;
23370;SDS011;11858;51.056;3.712;2023-06-10T12:15:42;18.25;;;17.05;;
23370;SDS011;11858;51.056;3.712;2023-06-10T12:18:15;16.90;;;15.75;;
23370;SDS011;11858;51.056;3.712;2023-06-10T12:20:45;16.08;;;15.02;;
23370;SDS011;11858;51.056;3.712;2023-06-10T12:23:11;16.80;;;15.73;;
23370;SDS011;11858;51.056;3.712;2023-06-10T12:25:38;16.05;;;15.07;;
23370;SDS011;11858;51.056;3.712;2023-06-10T12:28:05;17.58;;;16.38;;
23370;SDS011;11858;51.056;3.712;2023-06-10T12:30:33;16.88;;;15.88;;
23370;SDS011;11858;51.056;3.712;2023-06-10T12:32:59;15.55;;;14.65;;
23370;SDS011;11858;51.056;3.712;2023-06-10T12:35:27;16.98;;;15.95;;
23370;SDS011;11858;51.056;3.712;2023-06-10T12:38:00;16.37;;;15.37;;
23370;SDS011;11858;51.056;3.712;2023-06-10T12:40:28;16.55;;;15.55;;
23370;SDS011;11858;51.056;3.712;2023-06-10T12:42:56;15.52;;;14.60;;
23370;SDS011;11858;51.056;3.712;2023-06-10T12:45:30;17.88;;;16.55;;
23370;SDS011;11858;51.056;3.712;2023-06-10T12:48:07;16.90;;;15.80;;
23370;SDS011;11858;51.056;3.712;2023-06-10T12:50:35;16.40;;;15.40;;
23370;SDS011;11858;51.056;3.712;2023-06-10T12:53:02;17.08;;;15.98;;
23370;SDS011;11858;51.056;3.712;2023-06-10T12:55:28;16.92;;;15.82;;
23370;SDS011;11858;51.056;3.712;2023-06-10T12:57:54;17.45;;;16.15;;
23370;SDS011;11858;51.056;3.712;2023-06-10T13:00:21;18.50;;;17.20;;
23370;SDS011;11858;51.056;3.712;2023-06-10T13:02:50;16.57;;;15.57;;
23370;SDS011;11858;51.056;3.712;2023-06-10T13:05:17;16.80;;;15.77;;
23370;SDS011;11858;51.056;3.712;2023-06-10T13:07:43;18.23;;;17.02;;
23370;SDS011;11858;51.056;3.712;2023-06-10T13:10:09;16.70;;;15.68;;
23370;SDS011;11858;51.056;3.712;2023-06-10T13:12:35;17.05;;;15.98;;
23370;SDS011;11858;51.056;3.712;2023-06-10T13:15:01;16.67;;;15.68;;
23370;SDS011;11858;51.056;3.712;2023-06-10T13:17:27;18.70;;;16.38;;
23370;SDS011;11858;51.056;3.712;2023-06-10T13:19:53;17.83;;;16.67;;
23370;SDS011;11858;51.056;3.712;2023-06-10T13:22:18;15.23;;;14.32;;
23370;SDS011;11858;51.056;3.712;2023-06-10T13:24:45;15.80;;;14.80;;
23370;SDS011;11858;51.056;3.712;2023-06-10T13:27:11;17.20;;;16.10;;
23370;SDS011;11858;51.056;3.712;2023-06-10T13:29:39;16.42;;;15.43;;
23370;SDS011;11858;51.056;3.712;2023-06-10T13:32:05;17.40;;;16.30;;
23370;SDS011;11858;51.056;3.712;2023-06-10T13:34:31;16.60;;;15.60;;
23370;SDS011;11858;51.056;3.712;2023-06-10T13:36:57;16.23;;;15.23;;
23370;SDS011;11858;51.056;3.712;2023-06-10T13:39:23;16.38;;;15.38;;
23370;SDS011;11858;51.056;3.712;2023-06-10T13:41:49;16.10;;;15.10;;
23370;SDS011;11858;51.056;3.712;2023-06-10T13:44:14;16.17;;;15.18;;
23370;SDS011;11858;51.056;3.712;2023-06-10T13:46:40;16.35;;;15.35;;
23370;SDS011;11858;51.056;3.712;2023-06-10T13:49:05;16.58;;;15.27;;
23370;SDS011;11858;51.056;3.712;2023-06-10T13:51:31;17.35;;;16.25;;
23370;SDS011;11858;51.056;3.712;2023-06-10T13:53:57;15.88;;;14.95;;
23370;SDS011;11858;51.056;3.712;2023-06-10T13:56:22;24.60;;;16.52;;
23370;SDS011;11858;51.056;3.712;2023-06-10T13:58:48;16.55;;;15.55;;
23370;SDS011;11858;51.056;3.712;2023-06-10T14:01:13;17.30;;;16.20;;
23370;SDS011;11858;51.056;3.712;2023-06-10T14:03:40;17.58;;;16.33;;
23370;SDS011;11858;51.056;3.712;2023-06-10T14:06:05;16.70;;;15.70;;
23370;SDS011;11858;51.056;3.712;2023-06-10T14:08:31;18.73;;;17.63;;
23370;SDS011;11858;51.056;3.712;2023-06-10T14:10:57;18.60;;;17.42;;
23370;SDS011;11858;51.056;3.712;2023-06-10T14:13:23;18.85;;;17.73;;
23370;SDS011;11858;51.056;3.712;2023-06-10T14:15:49;19.15;;;17.95;;
23370;SDS011;11858;51.056;3.712;2023-06-10T14:18:14;19.30;;;18.10;;
23370;SDS011;11858;51.056;3.712;2023-06-10T14:20:40;18.60;;;17.50;;
23370;SDS011;11858;51.056;3.712;2023-06-10T14:23:06;19.52;;;18.35;;
23370;SDS011;11858;51.056;3.712;2023-06-10T14:25:31;18.40;;;17.30;;
23370;SDS011;11858;51.056;3.712;2023-06-10T14:27:57;19.17;;;17.95;;
23370;SDS011;11858;51.056;3.712;2023-06-10T14:30:23;19.15;;;17.95;;
23370;SDS011;11858;51.056;3.712;2023-06-10T14:32:48;18.60;;;17.50;;
23370;SDS011;11858;51.056;3.712;2023-06-10T14:35:14;19.77;;;18.58;;
23370;SDS011;11858;51.056;3.712;2023-06-10T14:37:40;20.77;;;19.35;;
23370;SDS011;11858;51.056;3.712;2023-06-10T14:40:05;19.10;;;17.90;;
23370;SDS011;11858;51.056;3.712;2023-06-10T14:42:31;18.55;;;17.42;;
23370;SDS011;11858;51.056;3.712;2023-06-10T14:44:57;19.30;;;18.10;;